Time;durP1;ratioP1;P1;durP2;ratioP2;P2;SDS_P1;SDS_P2;PMS_P1;PMS_P2;Temp;Humidity;BMP_temperature;BMP_pressure;BME280_temperature;BME280_humidity;BME280_pressure;Samples;Min_cycle;Max_cycle;Signal;HPM_P1;HPM_P2
2023/01/11 00:01:05;;;;;;;1.55;1.00;;;;;;;20.72;39.98;100409.25;5027521;28;20037;-64
2023/01/11 00:03:31;;;;;;;2.38;0.80;;;;;;;20.68;39.98;100402.72;5032335;28;20029;-64
2023/01/11 00:05:58;;;;;;;0.93;0.85;;;;;;;20.66;40.12;100398.66;5027380;28;20037;-64
2023/01/11 00:08:27;;;;;;;1.83;1.00;;;;;;;20.71;40.01;100407.63;5037069;28;20426;-64
2023/01/11 00:10:53;;;;;;;2.13;1.23;;;;;;;20.67;40.14;100403.75;5032889;28;20045;-64
2023/01/11 00:13:19;;;;;;;1.83;0.80;;;;;;;20.64;40.05;100390.88;5032948;28;20086;-65
2023/01/11 00:15:44;;;;;;;0.80;0.80;;;;;;;20.62;39.98;100397.38;5034931;28;20041;-64
2023/01/11 00:18:10;;;;;;;1.05;0.65;;;;;;;20.60;40.25;100397.59;5035501;28;20049;-64
2023/01/11 00:20:40;;;;;;;0.73;0.73;;;;;;;20.59;40.21;100382.72;5035160;28;20483;-64
2023/01/11 00:23:06;;;;;;;0.60;0.60;;;;;;;20.57;40.08;100376.81;5026096;28;20038;-64
2023/01/11 00:25:31;;;;;;;1.00;0.65;;;;;;;20.61;40.07;100388.63;5031495;28;20034;-64
2023/01/11 00:27:57;;;;;;;1.55;0.80;;;;;;;20.58;40.23;100374.97;5032568;28;20052;-65
2023/01/11 00:30:22;;;;;;;0.95;0.70;;;;;;;20.43;40.22;100354.75;5038378;28;20068;-65
2023/01/11 00:32:48;;;;;;;1.05;0.45;;;;;;;20.51;40.45;100369.66;5042202;28;20041;-64
2023/01/11 00:35:14;;;;;;;1.05;0.60;;;;;;;20.56;40.25;100361.97;5041589;28;20360;-64
2023/01/11 00:37:40;;;;;;;0.60;0.60;;;;;;;20.60;40.40;100357.91;5039473;28;20095;-64
2023/01/11 00:40:06;;;;;;;0.65;0.65;;;;;;;20.48;40.38;100348.91;5037562;28;20037;-64
2023/01/11 00:48:04;;;;;;;1.23;0.75;;;;;;;20.37;40.65;100334.34;5040842;28;20127;-65
2023/01/11 00:50:33;;;;;;;0.52;0.50;;;;;;;20.46;40.37;100348.25;5037593;28;20033;-65
2023/01/11 00:52:58;;;;;;;1.13;0.80;;;;;;;20.44;40.31;100345.81;5033942;28;20044;-64
2023/01/11 00:55:25;;;;;;;0.60;0.50;;;;;;;20.42;40.43;100334.63;5035194;28;20041;-64
2023/01/11 00:57:51;;;;;;;1.60;0.70;;;;;;;20.45;40.36;100334.22;5037130;28;20041;-64
2023/01/11 01:00:19;;;;;;;0.50;0.45;;;;;;;20.40;40.58;100341.09;5033141;28;20396;-64
2023/01/11 01:02:44;;;;;;;1.30;0.70;;;;;;;20.43;40.50;100346.81;5036501;28;20479;-64
2023/01/11 01:05:10;;;;;;;0.60;0.57;;;;;;;20.35;40.63;100330.28;5036699;28;20045;-64
2023/01/11 01:07:36;;;;;;;0.65;0.52;;;;;;;20.32;40.78;100341.25;5040959;28;20063;-64
2023/01/11 01:10:03;;;;;;;1.15;1.05;;;;;;;20.32;40.77;100338.59;5033177;28;20037;-64
2023/01/11 01:15:13;;;;;;;1.23;0.50;;;;;;;20.37;40.58;100336.19;5040210;28;20088;-64
2023/01/11 01:17:39;;;;;;;0.63;0.63;;;;;;;20.35;40.70;100325.00;5030098;28;20076;-64
2023/01/11 01:20:05;;;;;;;0.68;0.52;;;;;;;20.27;40.68;100330.41;5036306;28;20052;-64
2023/01/11 01:22:30;;;;;;;0.75;0.70;;;;;;;20.30;40.74;100338.81;5034529;28;20491;-64
2023/01/11 01:24:56;;;;;;;1.20;0.70;;;;;;;20.26;40.81;100332.25;5038578;28;20048;-66
2023/01/11 01:27:21;;;;;;;0.35;0.35;;;;;;;20.29;40.68;100331.88;5032035;28;20050;-64
2023/01/11 01:29:47;;;;;;;0.63;0.60;;;;;;;20.36;40.60;100335.38;5039416;28;20433;-65
2023/01/11 01:32:12;;;;;;;0.60;0.40;;;;;;;20.33;40.79;100342.88;5032314;28;20041;-66
2023/01/11 01:34:38;;;;;;;0.82;0.57;;;;;;;20.32;40.74;100336.78;5039191;28;20032;-64
2023/01/11 01:37:05;;;;;;;1.23;0.60;;;;;;;20.28;40.81;100337.34;5037656;28;20049;-64
2023/01/11 01:39:31;;;;;;;0.50;0.40;;;;;;;20.30;40.82;100335.34;5032094;28;20041;-64
2023/01/11 01:41:57;;;;;;;0.57;0.47;;;;;;;20.27;40.80;100341.00;5032889;28;20449;-64
2023/01/11 01:44:54;;;;;;;0.88;0.60;;;;;;;20.23;40.88;100346.69;5033157;28;20037;-67
2023/01/11 01:47:26;;;;;;;0.73;0.70;;;;;;;20.25;40.82;100343.03;5034761;28;20036;-66
2023/01/11 01:49:52;;;;;;;0.63;0.40;;;;;;;20.25;40.83;100341.19;5034443;28;20155;-65
2023/01/11 01:52:18;;;;;;;0.50;0.50;;;;;;;20.25;41.07;100343.03;5038824;28;20057;-64
2023/01/11 01:54:47;;;;;;;0.75;0.63;;;;;;;20.25;40.97;100343.03;5038049;28;20053;-65
2023/01/11 01:57:25;;;;;;;0.50;0.50;;;;;;;20.27;40.92;100335.72;5036839;28;20087;-65
2023/01/11 01:59:55;;;;;;;0.70;0.70;;;;;;;20.31;40.75;100340.44;5035359;28;20033;-65
2023/01/11 02:02:23;;;;;;;0.60;0.57;;;;;;;20.28;40.86;100334.69;5034726;28;20527;-65
2023/01/11 02:04:51;;;;;;;0.75;0.55;;;;;;;20.24;40.96;100331.63;5037024;28;20492;-66
2023/01/11 02:07:25;;;;;;;0.75;0.60;;;;;;;20.22;41.05;100336.31;5042052;28;20036;-65
2023/01/11 02:10:03;;;;;;;0.63;0.63;;;;;;;20.20;40.79;100336.50;5030276;28;20764;-64
2023/01/11 02:12:33;;;;;;;1.10;0.55;;;;;;;20.23;41.19;100333.47;5036417;28;20052;-65
2023/01/11 02:15:00;;;;;;;0.55;0.50;;;;;;;20.19;41.10;100326.94;5037311;28;20025;-64
2023/01/11 02:17:26;;;;;;;0.35;0.35;;;;;;;20.27;40.88;100335.72;5029656;28;20419;-66
2023/01/11 02:20:05;;;;;;;0.63;0.32;;;;;;;20.17;41.21;100336.06;5036851;28;20056;-64
2023/01/11 02:23:04;;;;;;;0.67;0.60;;;;;;;20.16;41.20;100329.16;5036650;28;20491;-65
2023/01/11 02:26:17;;;;;;;0.40;0.40;;;;;;;20.22;41.05;100323.91;5032483;28;20860;-64
2023/01/11 02:28:51;;;;;;;0.28;0.28;;;;;;;20.20;41.25;100331.22;5013422;28;20868;-64
2023/01/11 02:31:25;;;;;;;0.28;0.28;;;;;;;20.14;41.44;100324.06;5038850;28;20036;-65
2023/01/11 02:34:09;;;;;;;0.38;0.38;;;;;;;20.13;41.23;100322.44;5034649;28;20043;-65
2023/01/11 02:36:47;;;;;;;0.52;0.50;;;;;;;20.11;41.39;100319.16;5037916;28;20135;-64
2023/01/11 02:39:29;;;;;;;0.50;0.50;;;;;;;20.12;41.26;100315.50;5037691;28;20047;-64
2023/01/11 02:45:00;;;;;;;0.20;0.17;;;;;;;20.16;41.17;100319.41;5039541;28;20038;-64
2023/01/11 02:47:56;;;;;;;0.80;0.40;;;;;;;20.17;41.22;100317.56;5035898;28;20122;-67
2023/01/11 02:50:28;;;;;;;0.20;0.20;;;;;;;20.19;41.20;100329.56;5034680;28;20085;-65
2023/01/11 02:53:15;;;;;;;0.43;0.43;;;;;;;20.11;41.49;100323.63;5033890;28;20036;-64
2023/01/11 02:55:47;;;;;;;0.85;0.40;;;;;;;20.14;41.21;100329.34;5028624;28;20052;-64
2023/01/11 02:58:16;;;;;;;0.30;0.30;;;;;;;20.20;41.20;100325.09;5032930;28;20041;-64
2023/01/11 03:00:43;;;;;;;0.47;0.47;;;;;;;20.09;41.21;100321.16;5034283;28;20036;-64
2023/01/11 03:03:15;;;;;;;0.52;0.40;;;;;;;20.16;41.15;100327.31;5033509;28;20721;-64
2023/01/11 03:05:52;;;;;;;0.63;0.38;;;;;;;20.13;41.27;100325.06;5034712;28;20036;-65
2023/01/11 03:08:32;;;;;;;1.40;0.20;;;;;;;20.09;41.34;100321.16;5031959;28;20041;-65
2023/01/11 03:11:13;;;;;;;0.55;0.40;;;;;;;20.05;41.51;100327.03;5035730;28;20041;-65
2023/01/11 03:14:03;;;;;;;0.38;0.35;;;;;;;20.05;41.50;100322.56;5041694;28;20047;-64
2023/01/11 03:17:00;;;;;;;0.38;0.38;;;;;;;19.98;41.67;100334.09;5034862;28;20390;-64
2023/01/11 03:19:37;;;;;;;0.40;0.40;;;;;;;20.06;41.52;100337.41;5026484;28;20053;-65
2023/01/11 03:22:22;;;;;;;0.60;0.40;;;;;;;20.05;41.43;100342.88;5034652;28;20048;-64
2023/01/11 03:25:07;;;;;;;0.22;0.22;;;;;;;20.03;41.63;100329.88;5035394;28;20029;-64
2023/01/11 03:27:57;;;;;;;0.57;0.50;;;;;;;19.96;41.52;100331.66;5032791;28;20052;-64
2023/01/11 03:30:39;;;;;;;0.38;0.20;;;;;;;20.07;41.49;100338.22;5009838;28;20082;-64
2023/01/11 03:33:23;;;;;;;0.30;0.30;;;;;;;20.08;41.42;100350.44;5035934;28;20036;-64
2023/01/11 03:36:06;;;;;;;0.43;0.43;;;;;;;20.00;41.61;100353.22;5029677;28;20138;-64
2023/01/11 03:38:50;;;;;;;0.50;0.40;;;;;;;20.00;41.61;100356.69;5033080;28;20036;-64
2023/01/11 03:41:21;;;;;;;0.80;0.35;;;;;;;20.04;41.59;100357.13;5031772;28;20513;-64
2023/01/11 03:43:51;;;;;;;0.38;0.38;;;;;;;20.00;41.51;100359.34;5034173;28;20301;-64
2023/01/11 03:46:38;;;;;;;0.20;0.20;;;;;;;20.00;41.66;100363.81;5035343;28;20032;-64
2023/01/11 03:49:11;;;;;;;0.30;0.30;;;;;;;19.95;41.66;100367.03;5036661;28;20036;-64
2023/01/11 03:51:41;;;;;;;1.02;0.50;;;;;;;19.99;41.66;100380.66;5032273;28;20995;-65
2023/01/11 03:54:11;;;;;;;0.20;0.20;;;;;;;20.03;41.52;100390.66;5030886;28;20081;-64
2023/01/11 03:57:03;;;;;;;0.50;0.47;;;;;;;20.03;41.53;100392.50;5036518;28;21057;-64
2023/01/11 03:59:28;;;;;;;0.68;0.40;;;;;;;19.96;41.73;100383.69;5015299;28;20048;-64
2023/01/11 04:01:55;;;;;;;0.47;0.38;;;;;;;19.98;41.54;100385.13;5028874;28;20452;-64
2023/01/11 04:04:21;;;;;;;1.40;0.47;;;;;;;19.94;41.75;100388.38;5041598;28;20063;-64
2023/01/11 04:06:47;;;;;;;0.30;0.30;;;;;;;19.94;41.69;100383.06;5037557;28;20029;-64
2023/01/11 04:09:12;;;;;;;0.22;0.22;;;;;;;19.97;41.74;100395.91;5042537;28;20769;-65
2023/01/11 04:11:38;;;;;;;0.47;0.47;;;;;;;19.94;41.65;100404.22;5038214;28;20064;-65
2023/01/11 04:14:03;;;;;;;0.50;0.50;;;;;;;19.97;41.68;100403.84;5038003;28;20040;-64
2023/01/11 04:16:29;;;;;;;0.45;0.43;;;;;;;19.96;41.72;100407.47;5039785;28;20048;-64
2023/01/11 04:18:54;;;;;;;0.40;0.30;;;;;;;19.91;41.83;100394.81;5041396;28;20048;-64
2023/01/11 04:21:20;;;;;;;0.20;0.17;;;;;;;19.88;41.81;100393.38;5034330;28;20056;-65
2023/01/11 04:23:46;;;;;;;0.25;0.20;;;;;;;19.96;41.72;100400.38;5037716;28;20048;-64
2023/01/11 04:26:11;;;;;;;0.40;0.40;;;;;;;19.92;41.79;100402.56;5038757;28;20056;-64
2023/01/11 04:28:37;;;;;;;0.30;0.30;;;;;;;20.00;41.72;100401.63;5039867;28;20397;-65
2023/01/11 04:31:02;;;;;;;0.20;0.20;;;;;;;19.96;41.75;100392.44;5042486;28;20036;-65
2023/01/11 04:33:28;;;;;;;0.22;0.22;;;;;;;19.94;41.85;100401.56;5039901;28;20037;-64
2023/01/11 04:35:53;;;;;;;0.38;0.38;;;;;;;19.94;41.89;100410.31;5038796;28;20040;-65
2023/01/11 04:38:22;;;;;;;0.82;0.32;;;;;;;19.94;41.82;100412.97;5038771;28;20495;-64
2023/01/11 04:40:48;;;;;;;0.38;0.38;;;;;;;19.98;41.66;100401.00;5035369;28;20625;-64
2023/01/11 04:43:13;;;;;;;0.30;0.30;;;;;;;19.97;41.80;100401.19;5031453;28;20037;-63
2023/01/11 04:45:39;;;;;;;0.80;0.40;;;;;;;19.94;41.90;100420.06;5034666;28;20041;-65
2023/01/11 04:48:05;;;;;;;0.38;0.20;;;;;;;19.83;42.04;100416.91;5036814;28;20620;-64
2023/01/11 04:50:30;;;;;;;0.20;0.20;;;;;;;19.97;41.84;100430.25;5034935;28;20041;-64
2023/01/11 04:52:57;;;;;;;0.38;0.30;;;;;;;19.85;42.08;100422.81;5037810;28;20123;-64
2023/01/11 04:55:22;;;;;;;0.13;0.13;;;;;;;19.92;41.96;100434.25;5032000;28;20061;-64
2023/01/11 04:57:48;;;;;;;0.20;0.20;;;;;;;19.96;41.95;100447.94;5037510;28;20068;-63
2023/01/11 05:00:14;;;;;;;0.25;0.25;;;;;;;19.93;42.08;100440.41;5031644;28;20055;-64
2023/01/11 05:02:41;;;;;;;0.57;0.35;;;;;;;19.94;42.00;100446.50;5029177;28;20071;-64
2023/01/11 05:05:07;;;;;;;0.40;0.30;;;;;;;19.89;42.14;100454.97;5030986;28;20140;-64
2023/01/11 05:07:33;;;;;;;0.38;0.20;;;;;;;19.89;42.21;100474.28;5042857;28;20041;-64
2023/01/11 05:09:58;;;;;;;1.65;0.50;;;;;;;19.94;42.16;100455.25;5038722;28;20133;-64
2023/01/11 05:12:24;;;;;;;0.40;0.30;;;;;;;19.92;42.10;100465.16;5034715;28;20536;-65
2023/01/11 05:14:49;;;;;;;0.35;0.25;;;;;;;19.92;42.14;100454.59;5045902;28;20075;-64
2023/01/11 05:17:16;;;;;;;0.52;0.43;;;;;;;19.94;42.07;100470.28;5040877;28;20399;-64
2023/01/11 05:19:42;;;;;;;0.57;0.57;;;;;;;19.91;42.14;100469.63;5035248;28;20110;-64
2023/01/11 05:22:08;;;;;;;0.20;0.20;;;;;;;19.84;42.30;100475.88;5033683;28;20040;-64
2023/01/11 05:24:34;;;;;;;1.40;0.63;;;;;;;19.82;42.27;100462.84;5037564;28;20725;-64
2023/01/11 05:27:00;;;;;;;0.80;0.40;;;;;;;19.92;42.31;100478.38;5038951;28;20093;-64
2023/01/11 05:29:25;;;;;;;0.75;0.43;;;;;;;19.82;42.36;100485.81;5032755;28;20049;-64
2023/01/11 05:31:51;;;;;;;0.60;0.40;;;;;;;19.88;42.27;100492.97;5037488;28;20150;-64
2023/01/11 05:34:17;;;;;;;0.47;0.47;;;;;;;19.84;42.29;100495.19;5036962;28;20044;-64
2023/01/11 05:36:43;;;;;;;0.88;0.55;;;;;;;19.85;42.29;100493.34;5034725;28;20024;-64
2023/01/11 05:39:13;;;;;;;0.88;0.50;;;;;;;19.83;42.40;100498.84;5030071;28;20110;-64
2023/01/11 05:41:39;;;;;;;0.90;0.60;;;;;;;19.86;42.29;100498.44;5038624;28;20045;-64
2023/01/11 05:46:49;;;;;;;0.38;0.30;;;;;;;19.82;42.26;100491.09;5040358;28;20168;-64
2023/01/11 05:49:15;;;;;;;0.90;0.45;;;;;;;19.79;42.36;100502.03;5035674;28;20491;-64
2023/01/11 05:51:41;;;;;;;1.23;0.40;;;;;;;19.89;42.25;100497.25;5033299;28;20041;-64
2023/01/11 05:54:11;;;;;;;2.60;0.68;;;;;;;19.80;42.37;100496.56;5037696;28;20052;-64
2023/01/11 05:56:36;;;;;;;1.80;0.60;;;;;;;19.86;42.26;100503.72;5038654;28;20040;-64
2023/01/11 05:59:02;;;;;;;1.17;0.82;;;;;;;19.91;42.18;100503.97;5033332;28;20067;-64
2023/01/11 06:01:28;;;;;;;2.38;1.00;;;;;;;19.86;42.15;100503.72;5035049;28;20037;-64
2023/01/11 06:03:54;;;;;;;3.35;0.80;;;;;;;19.83;42.25;100501.47;5033021;28;20067;-64
2023/01/11 06:06:20;;;;;;;1.67;0.70;;;;;;;19.68;42.44;100492.75;5033583;28;20044;-65
2023/01/11 06:08:45;;;;;;;1.77;0.80;;;;;;;19.79;42.34;100507.31;5040708;28;20552;-66
2023/01/11 06:11:11;;;;;;;2.38;0.65;;;;;;;19.77;42.45;100504.06;5034989;28;20041;-65
2023/01/11 06:13:36;;;;;;;1.77;0.68;;;;;;;19.72;42.48;100509.88;5032066;28;20060;-64
2023/01/11 06:16:05;;;;;;;3.22;0.70;;;;;;;19.74;42.47;100517.63;5036823;28;20041;-64
2023/01/11 06:18:33;;;;;;;2.15;0.77;;;;;;;19.79;42.38;100523.19;5033867;28;20170;-64
2023/01/11 06:21:00;;;;;;;1.17;0.75;;;;;;;19.77;42.24;100518.09;5032014;28;20511;-64
2023/01/11 06:23:27;;;;;;;2.72;1.02;;;;;;;19.71;42.63;100529.38;5036487;28;20056;-64
2023/01/11 06:25:52;;;;;;;1.55;0.63;;;;;;;19.74;42.69;100523.72;5027196;28;20033;-64
2023/01/11 06:28:18;;;;;;;4.10;1.60;;;;;;;19.79;42.64;100533.75;5038833;28;20095;-66
2023/01/11 06:30:51;;;;;;;2.35;1.10;;;;;;;19.79;42.37;100545.13;5034050;28;20049;-64
2023/01/11 06:33:17;;;;;;;2.38;0.90;;;;;;;19.76;42.39;100545.50;5033787;28;20407;-64
2023/01/11 06:35:42;;;;;;;2.08;1.17;;;;;;;19.75;42.48;100541.22;5034747;28;20563;-64
2023/01/11 06:38:10;;;;;;;3.33;0.80;;;;;;;19.76;42.54;100544.69;5033332;28;20788;-64
2023/01/11 06:40:38;;;;;;;2.05;1.08;;;;;;;19.81;42.39;100545.75;5036147;28;20037;-64
2023/01/11 06:43:04;;;;;;;2.92;1.00;;;;;;;19.78;42.54;100543.50;5030498;28;21832;-64
2023/01/11 06:45:30;;;;;;;2.67;1.10;;;;;;;19.88;42.31;100548.47;5036904;28;20036;-65
2023/01/11 06:47:56;;;;;;;1.88;0.82;;;;;;;19.83;42.53;100553.50;5028747;28;20096;-64
2023/01/11 06:50:22;;;;;;;3.60;1.10;;;;;;;19.81;42.59;100545.75;5029208;28;20028;-64
2023/01/11 06:52:54;;;;;;;2.63;0.95;;;;;;;19.78;42.64;100556.72;5035595;28;20041;-64
2023/01/11 06:55:21;;;;;;;2.15;1.08;;;;;;;19.80;42.76;100564.44;5035069;28;20290;-64
2023/01/11 06:57:46;;;;;;;1.35;1.20;;;;;;;19.83;42.71;100566.72;5037068;28;20502;-64
2023/01/11 07:00:12;;;;;;;2.00;1.10;;;;;;;19.90;42.36;100571.06;5031546;28;20029;-65
2023/01/11 07:02:38;;;;;;;3.03;1.40;;;;;;;21.24;39.88;100564.13;5032330;28;20056;-64
2023/01/11 07:05:04;;;;;;;3.40;1.00;;;;;;;22.04;38.30;100575.84;5035231;28;20033;-65
2023/01/11 07:07:29;;;;;;;3.75;1.48;;;;;;;22.35;37.50;100578.00;5039744;28;20059;-64
2023/01/11 07:09:55;;;;;;;2.78;1.05;;;;;;;22.36;37.44;100574.31;5031674;28;20041;-64
2023/01/11 07:12:20;;;;;;;3.58;1.17;;;;;;;22.41;37.68;100577.19;5028608;28;20033;-64
2023/01/11 07:14:46;;;;;;;2.40;0.93;;;;;;;22.58;37.42;100588.22;5033848;28;20067;-64
2023/01/11 07:17:11;;;;;;;2.63;1.25;;;;;;;22.70;37.18;100583.94;5030635;28;20051;-64
2023/01/11 07:19:37;;;;;;;3.80;1.25;;;;;;;22.72;37.38;100581.91;5033240;28;20484;-63
2023/01/11 07:22:02;;;;;;;4.43;1.40;;;;;;;22.66;37.61;100584.56;5032833;28;20052;-64
2023/01/11 07:24:28;;;;;;;1.98;1.10;;;;;;;22.65;37.71;100604.97;5029737;28;20360;-64
2023/01/11 07:26:55;;;;;;;2.70;1.27;;;;;;;22.57;37.58;100605.97;5036399;28;20037;-64
2023/01/11 07:29:21;;;;;;;2.08;1.27;;;;;;;22.48;37.71;100590.47;5032136;28;20063;-65
2023/01/11 07:31:46;;;;;;;2.67;1.48;;;;;;;22.41;38.14;100595.75;5031565;28;20060;-64
2023/01/11 07:34:12;;;;;;;2.90;1.50;;;;;;;22.31;38.45;100593.50;5036324;28;20127;-64
2023/01/11 07:36:39;;;;;;;2.55;1.42;;;;;;;22.21;38.36;100589.59;5032273;28;20036;-64
2023/01/11 07:39:07;;;;;;;3.72;1.30;;;;;;;22.09;38.68;100589.38;5035122;28;20128;-64
2023/01/11 07:44:17;;;;;;;3.05;1.25;;;;;;;22.06;38.98;100626.06;5032250;28;20542;-64
2023/01/11 07:46:43;;;;;;;2.95;1.45;;;;;;;21.91;38.91;100624.38;5036259;28;20028;-64
2023/01/11 07:49:08;;;;;;;3.08;1.88;;;;;;;21.94;38.90;100641.72;5032703;28;20513;-64
2023/01/11 07:51:34;;;;;;;2.80;1.55;;;;;;;21.82;39.41;100648.59;5040041;28;20438;-64
2023/01/11 07:54:02;;;;;;;3.50;1.35;;;;;;;21.78;39.22;100653.47;5029823;28;20522;-64
2023/01/11 07:56:29;;;;;;;3.83;1.70;;;;;;;21.73;39.35;100661.19;5045189;28;20669;-66
2023/01/11 07:58:55;;;;;;;3.08;1.30;;;;;;;21.63;39.69;100655.44;5032075;28;20152;-64
2023/01/11 08:01:21;;;;;;;3.67;1.55;;;;;;;21.46;40.17;100641.69;5036100;28;20029;-65
2023/01/11 08:03:47;;;;;;;4.78;1.50;;;;;;;21.41;39.97;100644.91;5036943;28;20046;-64
2023/01/11 08:06:15;;;;;;;4.13;1.70;;;;;;;21.41;40.23;100652.03;5041047;28;20029;-64
2023/01/11 08:08:42;;;;;;;3.65;1.40;;;;;;;21.01;40.91;100654.38;5034607;28;20594;-66
2023/01/11 08:16:36;;;;;;;2.42;1.40;;;;;;;20.93;40.98;100673.03;5033263;28;20455;-64
2023/01/11 08:19:02;;;;;;;4.63;2.00;;;;;;;20.92;41.05;100678.50;5036214;28;20799;-64
2023/01/11 08:21:28;;;;;;;3.15;1.50;;;;;;;20.87;41.19;100675.63;5039486;28;20048;-64
2023/01/11 08:23:58;;;;;;;4.68;1.73;;;;;;;20.81;41.16;100671.88;5039344;28;20036;-65
2023/01/11 08:26:24;;;;;;;2.20;1.52;;;;;;;20.79;41.47;100671.25;5035449;28;20111;-63
2023/01/11 08:28:51;;;;;;;4.55;1.88;;;;;;;20.84;41.39;100674.19;5029812;28;20472;-63
2023/01/11 08:31:16;;;;;;;2.65;1.48;;;;;;;20.73;41.66;100675.50;5033982;28;20044;-64
2023/01/11 08:33:42;;;;;;;6.80;1.85;;;;;;;20.70;41.63;100665.28;5033055;28;20773;-64
2023/01/11 08:36:09;;;;;;;3.22;1.60;;;;;;;20.72;41.42;100678.34;5034855;28;20125;-64
2023/01/11 08:38:35;;;;;;;5.20;1.75;;;;;;;20.66;41.48;100671.97;5038244;28;20110;-64
2023/01/11 08:41:01;;;;;;;3.45;1.17;;;;;;;20.68;41.58;100679.72;5034160;28;20044;-64
2023/01/11 08:43:30;;;;;;;1.90;1.27;;;;;;;20.72;41.52;100694.22;5038475;28;20083;-64
2023/01/11 08:45:56;;;;;;;3.85;1.52;;;;;;;20.60;41.79;100698.34;5029124;28;20456;-64
2023/01/11 08:48:22;;;;;;;2.15;1.20;;;;;;;20.61;41.77;100700.81;5038893;28;20913;-65
2023/01/11 08:50:47;;;;;;;3.67;1.48;;;;;;;20.63;41.56;100705.91;5036635;28;20064;-64
2023/01/11 08:53:14;;;;;;;3.78;1.70;;;;;;;20.69;41.59;100713.94;5044915;28;20041;-63
2023/01/11 08:55:42;;;;;;;5.90;1.60;;;;;;;20.71;41.62;100714.56;5038916;28;20124;-64
2023/01/11 08:58:07;;;;;;;3.13;1.38;;;;;;;20.62;41.50;100720.16;5037050;28;20422;-65
2023/01/11 09:00:33;;;;;;;4.40;1.50;;;;;;;20.73;41.39;100727.59;5040687;28;20053;-64
2023/01/11 09:03:01;;;;;;;3.63;1.38;;;;;;;20.66;41.56;100734.66;5044574;28;20049;-64
2023/01/11 09:05:27;;;;;;;2.83;1.42;;;;;;;20.68;41.28;100719.41;5030561;28;20114;-64
2023/01/11 09:07:56;;;;;;;3.17;1.60;;;;;;;20.63;41.55;100727.91;5031816;28;20903;-64
2023/01/11 09:10:25;;;;;;;2.80;1.30;;;;;;;20.67;41.50;100731.00;5043008;28;20119;-64
2023/01/11 09:12:52;;;;;;;2.05;1.20;;;;;;;20.76;41.24;100738.63;5044004;28;20102;-64
2023/01/11 09:15:17;;;;;;;4.07;1.17;;;;;;;20.76;41.23;100735.16;5045197;28;20044;-63
2023/01/11 09:17:45;;;;;;;5.72;1.33;;;;;;;20.79;41.36;100740.06;5038701;28;20395;-64
2023/01/11 09:20:11;;;;;;;2.75;1.38;;;;;;;20.78;41.10;100739.25;5035975;28;20046;-64
2023/01/11 09:22:36;;;;;;;2.53;1.40;;;;;;;20.72;41.48;100741.84;5039478;28;20044;-64
2023/01/11 09:25:02;;;;;;;2.17;1.40;;;;;;;20.79;41.14;100751.47;5020082;28;20046;-64
2023/01/11 09:27:28;;;;;;;2.60;1.42;;;;;;;21.48;39.93;100753.56;5042212;28;20056;-63
2023/01/11 09:29:53;;;;;;;3.25;1.20;;;;;;;22.08;38.92;100756.63;5037539;28;20046;-65
2023/01/11 09:32:19;;;;;;;3.75;1.48;;;;;;;22.48;37.89;100762.94;5039284;28;20068;-64
2023/01/11 09:34:46;;;;;;;2.90;1.55;;;;;;;22.55;37.65;100758.47;5037218;28;20031;-65
2023/01/11 09:37:11;;;;;;;3.80;1.30;;;;;;;22.57;37.71;100761.75;5039863;28;20083;-64
2023/01/11 09:39:38;;;;;;;5.20;1.55;;;;;;;22.51;38.04;100759.88;5025895;28;20534;-64
2023/01/11 09:42:10;;;;;;;6.82;1.83;;;;;;;22.29;38.28;100740.63;5036977;28;20056;-64
2023/01/11 09:44:49;;;;;;;5.80;1.65;;;;;;;22.28;38.42;100768.16;5035521;28;20573;-64
2023/01/11 09:47:24;;;;;;;5.72;1.80;;;;;;;22.70;37.47;100758.31;4978129;28;20041;-65
2023/01/11 09:49:55;;;;;;;3.42;1.70;;;;;;;22.97;37.24;100767.16;5044649;28;20057;-64
2023/01/11 09:52:39;;;;;;;4.40;1.75;;;;;;;22.87;37.30;100759.63;5030372;28;20592;-66
2023/01/11 09:55:14;;;;;;;4.60;1.50;;;;;;;22.77;37.94;100749.34;5032130;28;20033;-68
2023/01/11 09:57:50;;;;;;;4.78;1.80;;;;;;;22.80;38.27;100764.88;5028352;28;20037;-65
2023/01/11 10:00:22;;;;;;;3.33;1.52;;;;;;;22.73;38.09;100768.53;5040109;28;20102;-65
2023/01/11 10:03:06;;;;;;;3.78;1.80;;;;;;;22.92;37.69;100771.25;5000636;28;20473;-60
2023/01/11 10:05:50;;;;;;;3.33;2.05;;;;;;;22.97;37.42;100769.81;5037533;28;20033;-64
2023/01/11 10:08:28;;;;;;;3.30;1.73;;;;;;;23.00;37.42;100770.28;5032667;28;20041;-64
2023/01/11 10:11:08;;;;;;;4.20;2.08;;;;;;;22.91;37.53;100766.97;5034171;28;20037;-65
2023/01/11 10:13:53;;;;;;;5.00;2.10;;;;;;;22.79;37.96;100767.72;5037692;28;20033;-64
2023/01/11 10:16:33;;;;;;;3.70;1.77;;;;;;;22.80;37.64;100764.03;5028878;28;20075;-65
2023/01/11 10:19:03;;;;;;;3.08;1.67;;;;;;;22.82;37.95;100768.19;5039235;28;20044;-69
2023/01/11 10:21:46;;;;;;;8.07;2.08;;;;;;;22.76;38.08;100754.84;5034103;28;20083;-68
2023/01/11 10:24:42;;;;;;;3.85;2.00;;;;;;;22.85;37.60;100770.44;5038054;28;20032;-70
2023/01/11 10:27:21;;;;;;;4.65;1.98;;;;;;;22.80;37.85;100767.53;5037144;28;20056;-69
2023/01/11 10:30:05;;;;;;;3.30;1.67;;;;;;;22.87;37.86;100776.38;5041628;28;20114;-67
2023/01/11 10:35:28;;;;;;;6.97;1.80;;;;;;;22.79;37.84;100771.19;5035509;28;20039;-72
2023/01/11 10:38:20;;;;;;;3.38;1.80;;;;;;;22.77;37.76;100759.13;5039581;28;20032;-73
2023/01/11 10:41:13;;;;;;;5.30;1.60;;;;;;;23.00;37.95;100777.41;5032842;28;20033;-72
2023/01/11 10:43:46;;;;;;;3.88;1.70;;;;;;;23.02;37.74;100776.19;5025525;28;20037;-72
2023/01/11 10:46:25;;;;;;;4.43;1.50;;;;;;;23.07;37.84;100772.91;5033100;28;20144;-71
2023/01/11 10:49:02;;;;;;;3.83;1.70;;;;;;;23.06;37.65;100782.72;5024976;28;20115;-63
2023/01/11 10:51:37;;;;;;;5.00;1.73;;;;;;;23.08;37.93;100786.00;5037256;28;20650;-65
2023/01/11 10:54:11;;;;;;;2.85;1.60;;;;;;;23.06;37.71;100787.22;5036364;28;20052;-64
2023/01/11 10:56:42;;;;;;;3.25;1.83;;;;;;;23.07;37.75;100800.31;5042739;28;20024;-66
2023/01/11 10:59:34;;;;;;;6.07;1.77;;;;;;;23.02;37.73;100793.97;5037464;28;20177;-64
2023/01/11 11:02:37;;;;;;;2.35;1.40;;;;;;;23.06;37.82;100790.69;5016589;28;20049;-74
2023/01/11 11:05:17;;;;;;;2.55;1.80;;;;;;;23.05;37.93;100796.22;5023982;28;20033;-76
2023/01/11 11:07:53;;;;;;;2.60;1.35;;;;;;;22.99;38.10;100797.03;5033357;28;20051;-74
2023/01/11 11:10:39;;;;;;;2.70;1.48;;;;;;;23.05;37.99;100790.91;5040029;28;20032;-76
2023/01/11 11:13:33;;;;;;;6.80;1.60;;;;;;;23.02;38.04;100797.44;5038974;28;21544;-74
2023/01/11 11:16:08;;;;;;;2.50;1.40;;;;;;;22.80;38.63;100795.91;5041357;28;20041;-73
2023/01/11 11:18:34;;;;;;;4.10;1.85;;;;;;;23.05;38.07;100783.75;5024197;28;20622;-75
2023/01/11 11:21:05;;;;;;;3.63;1.52;;;;;;;22.81;38.64;100787.75;5034361;28;20040;-77
2023/01/11 11:23:33;;;;;;;5.05;1.50;;;;;;;22.72;38.75;100793.44;5037426;28;20040;-78
2023/01/11 11:26:03;;;;;;;4.20;1.90;;;;;;;22.69;38.68;100805.28;5045783;28;21917;-77
2023/01/11 11:28:31;;;;;;;3.50;1.60;;;;;;;22.66;38.94;100792.41;5041321;28;20483;-77
2023/01/11 11:31:01;;;;;;;2.72;1.48;;;;;;;22.66;38.59;100791.59;5034220;28;20106;-77
2023/01/11 11:33:35;;;;;;;4.63;1.70;;;;;;;22.64;38.87;100794.44;5020303;28;20451;-67
2023/01/11 11:36:04;;;;;;;4.65;1.50;;;;;;;22.60;38.83;100795.84;5037931;28;20483;-67
2023/01/11 11:38:35;;;;;;;4.65;1.70;;;;;;;22.56;38.61;100792.75;5037935;28;20060;-67
2023/01/11 11:41:06;;;;;;;2.90;1.67;;;;;;;22.55;38.70;100798.28;5041757;28;20061;-66
2023/01/11 11:43:33;;;;;;;3.38;1.85;;;;;;;22.53;38.67;100803.78;5034771;28;20068;-68
2023/01/11 11:46:15;;;;;;;3.78;1.77;;;;;;;22.47;38.68;100803.78;5042034;28;20066;-67
2023/01/11 11:49:04;;;;;;;3.35;1.33;;;;;;;22.50;38.74;100801.53;5015630;28;20483;-66
2023/01/11 11:51:31;;;;;;;3.22;1.52;;;;;;;22.48;38.62;100797.44;5029722;28;20691;-67
2023/01/11 11:53:56;;;;;;;3.40;1.70;;;;;;;22.47;38.55;100811.72;5033076;28;20045;-68
2023/01/11 11:56:25;;;;;;;2.80;1.27;;;;;;;22.45;38.63;100808.47;5043241;28;20048;-67
2023/01/11 11:58:52;;;;;;;2.93;1.23;;;;;;;22.44;38.57;100815.59;5036679;28;20025;-67
2023/01/11 12:01:42;;;;;;;2.25;1.35;;;;;;;22.40;38.92;100822.28;5035986;28;20097;-68
2023/01/11 12:04:22;;;;;;;;;;;;;;;22.41;38.49;100815.97;4974472;28;20029;-71
2023/01/11 12:07:14;;;;;;;;;;;;;;;22.39;38.66;100828.63;5032335;28;19924;-72